Time;durP1;ratioP1;P1;durP2;ratioP2;P2;SDS_P1;SDS_P2;PMS_P1;PMS_P2;Temp;Humidity;BMP_temperature;BMP_pressure;BME280_temperature;BME280_humidity;BME280_pressure;Samples;Min_cycle;Max_cycle;Signal;HPM_P1;HPM_P2
2023/11/14 00:00:06;;;;;;;6.40;1.80;;;;;;;7.81;56.19;100061.02;106185;1254;61422;-54
2023/11/14 00:02:34;;;;;;;9.40;6.20;;;;;;;7.76;56.16;100061.37;105871;1257;63691;-54
2023/11/14 00:05:01;;;;;;;6.90;2.50;;;;;;;7.74;56.25;100057.38;106268;1257;60552;-54
2023/11/14 00:07:29;;;;;;;6.80;3.40;;;;;;;7.72;56.25;100056.64;108318;1254;60613;-55
2023/11/14 00:09:57;;;;;;;10.50;6.60;;;;;;;7.70;56.31;100052.05;105860;1254;63692;-54
2023/11/14 00:12:24;;;;;;;8.70;2.10;;;;;;;7.71;56.35;100053.71;106410;1254;60345;-52
2023/11/14 00:14:52;;;;;;;6.70;2.60;;;;;;;7.76;56.14;100056.84;105448;1256;62424;-53
2023/11/14 00:17:20;;;;;;;10.70;6.40;;;;;;;7.81;56.18;100055.05;105583;1254;60501;-54
2023/11/14 00:19:48;;;;;;;6.80;2.80;;;;;;;7.85;56.10;100050.77;106091;1254;60416;-53
2023/11/14 00:22:16;;;;;;;14.10;7.60;;;;;;;7.89;56.07;100054.69;106016;1254;63639;-53
2023/11/14 00:24:44;;;;;;;7.20;3.00;;;;;;;7.88;56.06;100049.84;105249;1257;60444;-53
2023/11/14 00:27:12;;;;;;;11.30;6.80;;;;;;;7.86;56.07;100054.70;105649;1254;63768;-53
2023/11/14 00:29:41;;;;;;;7.60;3.00;;;;;;;7.84;56.16;100044.41;103471;1254;3449821;-53
2023/11/14 00:33:00;;;;;;;6.60;2.60;;;;;;;7.60;56.75;100045.95;102223;1291;600372;-55
2023/11/14 00:35:28;;;;;;;10.30;6.40;;;;;;;7.77;56.13;100053.27;105055;1269;59243;-53
2023/11/14 00:37:56;;;;;;;8.70;3.20;;;;;;;7.72;56.07;100056.62;104427;1267;59289;-56
2023/11/14 00:40:24;;;;;;;5.10;2.30;;;;;;;7.63;56.11;100046.23;104450;1269;63476;-55
2023/11/14 00:42:51;;;;;;;12.00;7.10;;;;;;;7.54;56.24;100054.75;106463;1266;60129;-55
2023/11/14 00:45:19;;;;;;;5.90;2.60;;;;;;;7.43;56.30;100054.84;106136;1266;64265;-52
2023/11/14 00:47:46;;;;;;;5.30;2.20;;;;;;;7.32;56.49;100050.40;102446;1268;3394733;-52
2023/11/14 00:50:14;;;;;;;4.50;1.80;;;;;;;7.23;56.62;100051.23;104879;1263;59326;-53
2023/11/14 00:52:46;;;;;;;5.10;2.10;;;;;;;7.15;56.77;100045.04;105281;1256;63737;-51
2023/11/14 00:55:14;;;;;;;9.50;2.00;;;;;;;7.11;56.78;100038.31;105970;1253;60087;-52
2023/11/14 00:57:42;;;;;;;11.70;5.90;;;;;;;7.11;56.80;100036.27;107112;1252;62417;-53
2023/11/14 01:00:12;;;;;;;6.70;2.70;;;;;;;7.07;56.78;100046.60;105884;1252;59720;-52
2023/11/14 01:02:40;;;;;;;7.70;3.40;;;;;;;7.00;56.79;100044.46;105587;1251;59984;-54
2023/11/14 01:05:08;;;;;;;10.30;6.60;;;;;;;6.93;56.98;100036.44;105657;1253;64331;-53
2023/11/14 01:07:36;;;;;;;6.80;2.10;;;;;;;6.86;57.00;100034.67;105958;1251;60234;-53
2023/11/14 01:10:04;;;;;;;6.90;2.00;;;;;;;6.78;57.01;100031.58;106351;1254;63838;-52
2023/11/14 01:12:33;;;;;;;5.00;1.60;;;;;;;6.70;57.09;100028.30;105800;1256;59727;-52
2023/11/14 01:15:00;;;;;;;7.10;2.90;;;;;;;6.63;57.24;100019.55;106286;1256;59306;-54
2023/11/14 01:17:28;;;;;;;6.10;2.20;;;;;;;6.57;57.37;100019.09;106511;1251;62820;-52
2023/11/14 01:19:56;;;;;;;6.30;2.60;;;;;;;6.49;57.48;100016.27;105788;1253;61516;-53
2023/11/14 01:22:24;;;;;;;4.60;2.00;;;;;;;6.44;57.52;100012.98;106964;1256;63743;-52
2023/11/14 01:24:51;;;;;;;5.70;1.70;;;;;;;6.39;57.76;100021.64;105472;1256;59769;-53
2023/11/14 01:27:19;;;;;;;5.90;2.50;;;;;;;6.38;57.78;100017.58;105493;1256;59625;-53
2023/11/14 01:29:47;;;;;;;5.50;2.40;;;;;;;6.39;57.67;100008.44;107102;1253;62866;-52
2023/11/14 01:32:15;;;;;;;6.50;3.20;;;;;;;6.41;57.64;100007.94;105528;1255;61312;-50
2023/11/14 01:34:42;;;;;;;7.20;2.50;;;;;;;6.41;57.63;100004.28;105474;1256;62538;-52
2023/11/14 01:37:10;;;;;;;10.50;5.90;;;;;;;6.38;57.65;100000.67;107160;1250;59683;-53
2023/11/14 01:39:42;;;;;;;8.90;3.20;;;;;;;6.36;57.71;99999.29;105209;1254;59786;-52
2023/11/14 01:42:10;;;;;;;4.80;2.10;;;;;;;6.32;57.73;99993.05;105781;1254;66732;-49
2023/11/14 01:44:37;;;;;;;6.10;2.60;;;;;;;6.27;57.78;99991.46;105377;1253;62048;-51
2023/11/14 01:47:05;;;;;;;13.20;7.60;;;;;;;6.23;57.76;99989.19;105174;1254;62487;-51
2023/11/14 01:49:34;;;;;;;7.30;2.80;;;;;;;6.16;57.83;99981.06;105737;1255;59739;-50
2023/11/14 01:52:02;;;;;;;6.90;2.50;;;;;;;6.11;57.92;99970.27;108274;1252;59325;-52
2023/11/14 01:54:30;;;;;;;6.00;2.30;;;;;;;6.05;57.99;99970.69;106744;1253;64056;-49
2023/11/14 01:56:58;;;;;;;6.70;2.60;;;;;;;5.99;58.11;99972.47;106054;1255;61201;-51
2023/11/14 01:59:25;;;;;;;5.90;2.60;;;;;;;5.96;58.24;99976.15;106003;1253;62686;-55
2023/11/14 02:01:53;;;;;;;7.10;2.70;;;;;;;5.91;58.26;99981.54;105429;1254;59747;-51
2023/11/14 02:04:21;;;;;;;9.50;6.70;;;;;;;5.89;58.28;99977.30;105837;1251;59655;-53
2023/11/14 02:06:49;;;;;;;7.90;3.00;;;;;;;5.92;58.27;99973.81;105986;1253;62809;-53
2023/11/14 02:09:17;;;;;;;6.50;2.80;;;;;;;5.95;58.27;99977.44;106089;1256;60122;-50
2023/11/14 02:11:45;;;;;;;6.30;2.40;;;;;;;5.93;58.31;99972.13;105511;1257;62498;-52
2023/11/14 02:14:13;;;;;;;7.70;3.60;;;;;;;5.89;58.44;99972.92;105933;1253;59530;-53
2023/11/14 02:16:47;;;;;;;7.10;2.60;;;;;;;5.85;58.56;99971.09;105302;1253;59747;-51
2023/11/14 02:19:16;;;;;;;7.30;3.90;;;;;;;5.82;58.61;99972.77;106114;1256;64249;-54
2023/11/14 02:21:43;;;;;;;7.20;2.40;;;;;;;5.77;58.68;99973.36;106107;1251;61853;-52
2023/11/14 02:24:16;;;;;;;7.40;3.30;;;;;;;5.73;58.86;99976.94;106125;1253;62483;-52
2023/11/14 02:26:48;;;;;;;6.00;2.90;;;;;;;5.69;58.79;99970.63;106617;1253;59733;-51
2023/11/14 02:29:21;;;;;;;6.40;2.90;;;;;;;5.65;58.89;99967.76;105960;1254;59512;-53
2023/11/14 02:31:49;;;;;;;8.50;3.90;;;;;;;5.61;58.97;99970.08;105500;1257;64158;-52
2023/11/14 02:34:17;;;;;;;9.40;3.50;;;;;;;5.57;59.04;99970.35;105494;1257;60454;-52
2023/11/14 02:36:45;;;;;;;9.10;3.60;;;;;;;5.53;59.12;99966.25;105501;1253;62462;-49
2023/11/14 02:39:13;;;;;;;7.70;3.50;;;;;;;5.56;59.16;99969.22;106865;1253;59977;-50
2023/11/14 02:41:41;;;;;;;7.50;3.20;;;;;;;5.62;59.14;99968.48;105764;1255;59499;-50
2023/11/14 02:44:09;;;;;;;6.60;2.30;;;;;;;5.68;59.09;99969.46;105697;1253;62890;-50
2023/11/14 02:46:38;;;;;;;8.00;2.90;;;;;;;5.70;58.99;99969.16;105333;1258;60266;-49
2023/11/14 02:49:33;;;;;;;9.00;3.10;;;;;;;5.70;59.05;99970.21;105835;1253;62504;-51
2023/11/14 02:52:01;;;;;;;6.50;2.00;;;;;;;5.67;59.02;99963.41;106803;1252;59679;-51
2023/11/14 02:54:28;;;;;;;6.90;2.50;;;;;;;5.64;59.06;99959.63;106729;1251;59590;-53
2023/11/14 02:56:56;;;;;;;6.90;2.60;;;;;;;5.62;59.08;99954.20;106037;1252;62866;-54
2023/11/14 02:59:24;;;;;;;8.90;3.20;;;;;;;5.60;59.04;99949.48;106230;1253;60218;-52
2023/11/14 03:01:52;;;;;;;9.70;3.20;;;;;;;5.57;59.00;99942.33;107691;1253;63796;-54
2023/11/14 03:04:20;;;;;;;9.90;3.70;;;;;;;5.53;59.07;99936.15;106093;1252;59727;-52
2023/11/14 03:06:47;;;;;;;8.10;3.40;;;;;;;5.48;59.18;99934.46;106068;1253;60523;-53
2023/11/14 03:09:15;;;;;;;7.70;3.50;;;;;;;5.42;59.19;99939.84;105790;1253;64082;-53
2023/11/14 03:11:43;;;;;;;8.80;3.20;;;;;;;5.37;59.22;99939.85;107884;1253;60080;-52
2023/11/14 03:14:10;;;;;;;8.30;3.70;;;;;;;5.32;59.37;99949.74;105816;1251;64145;-52
2023/11/14 03:16:38;;;;;;;10.30;5.20;;;;;;;5.27;59.41;99953.56;106718;1252;59785;-53
2023/11/14 03:19:06;;;;;;;7.60;2.90;;;;;;;5.21;59.50;99950.08;105435;1256;59993;-53
2023/11/14 03:21:42;;;;;;;7.30;4.10;;;;;;;5.15;59.62;99941.95;106849;1255;64132;-52
2023/11/14 03:24:11;;;;;;;5.60;2.30;;;;;;;5.08;59.68;99943.45;106329;1254;61816;-52
2023/11/14 03:26:39;;;;;;;5.50;1.90;;;;;;;5.07;59.73;99949.27;105488;1255;64136;-53
2023/11/14 03:29:10;;;;;;;11.10;2.40;;;;;;;5.09;59.73;99949.47;107852;1253;59763;-53
2023/11/14 03:31:38;;;;;;;7.40;2.40;;;;;;;5.11;59.67;99946.19;105740;1256;59672;-52
2023/11/14 03:34:06;;;;;;;5.30;2.30;;;;;;;5.14;59.77;99951.77;106683;1253;62993;-52
2023/11/14 03:36:34;;;;;;;8.70;2.90;;;;;;;5.16;59.84;99956.30;105604;1259;61375;-52
2023/11/14 03:39:03;;;;;;;6.60;2.30;;;;;;;5.19;59.76;99955.79;105225;1257;63753;-53
2023/11/14 03:41:31;;;;;;;6.90;3.00;;;;;;;5.19;59.78;99947.96;105367;1255;59695;-52
2023/11/14 03:43:58;;;;;;;8.50;3.20;;;;;;;5.17;59.95;99947.37;105839;1258;59947;-54
2023/11/14 03:46:26;;;;;;;6.10;2.30;;;;;;;5.13;59.89;99946.61;105435;1256;64230;-55
2023/11/14 03:48:54;;;;;;;9.00;3.40;;;;;;;5.08;59.95;99947.29;105545;1254;61350;-55
2023/11/14 03:51:21;;;;;;;8.70;3.70;;;;;;;5.05;60.01;99946.95;105399;1255;62552;-52
2023/11/14 03:53:49;;;;;;;10.60;3.70;;;;;;;4.99;59.92;99945.36;105345;1257;59741;-53
2023/11/14 03:56:17;;;;;;;7.40;4.20;;;;;;;4.93;59.98;99938.11;105384;1259;59643;-53
2023/11/14 03:58:46;;;;;;;6.60;2.50;;;;;;;4.87;59.98;99923.38;105785;1258;64131;-53
2023/11/14 04:01:15;;;;;;;7.00;2.80;;;;;;;4.81;60.07;99912.62;108592;1252;60290;-55
2023/11/14 04:03:43;;;;;;;11.30;3.60;;;;;;;4.76;60.16;99901.14;105978;1251;62494;-56
2023/11/14 04:06:11;;;;;;;9.70;3.60;;;;;;;4.73;60.37;99887.65;105622;1253;59717;-55
2023/11/14 04:08:39;;;;;;;7.60;3.50;;;;;;;4.68;60.48;99885.14;107776;1253;59250;-55
2023/11/14 04:11:06;;;;;;;12.20;8.50;;;;;;;4.62;60.63;99887.39;105215;1253;63010;-55
2023/11/14 04:13:38;;;;;;;8.40;3.20;;;;;;;4.59;60.80;99886.60;107332;1253;60113;-53
2023/11/14 04:16:06;;;;;;;5.80;2.20;;;;;;;4.63;60.92;99889.98;105615;1251;71392;-54
2023/11/14 04:18:38;;;;;;;8.30;2.50;;;;;;;4.72;60.92;99887.36;107291;1253;59751;-55
2023/11/14 04:21:06;;;;;;;5.00;2.40;;;;;;;4.79;60.88;99886.92;107400;1253;59657;-53
2023/11/14 04:23:35;;;;;;;12.20;2.70;;;;;;;4.85;60.97;99882.31;109323;1251;73674;-53
2023/11/14 04:26:02;;;;;;;7.20;2.90;;;;;;;4.93;60.88;99880.28;109353;1252;60312;-53
2023/11/14 04:28:31;;;;;;;8.50;3.00;;;;;;;4.99;60.96;99877.59;108270;1256;63742;-55
2023/11/14 04:30:59;;;;;;;8.80;3.80;;;;;;;5.03;61.06;99873.88;108130;1253;59654;-54
2023/11/14 04:33:27;;;;;;;9.10;4.10;;;;;;;5.06;60.94;99871.94;109327;1252;57775;-54
2023/11/14 04:35:54;;;;;;;9.80;4.40;;;;;;;5.09;60.89;99876.47;109331;1252;62889;-54
2023/11/14 04:38:22;;;;;;;11.00;3.80;;;;;;;5.10;60.73;99876.04;106267;1253;61351;-53
2023/11/14 04:40:52;;;;;;;9.10;3.80;;;;;;;5.08;60.70;99874.58;106176;1257;63771;-53
2023/11/14 04:43:20;;;;;;;9.30;3.70;;;;;;;5.03;60.70;99871.09;105796;1254;60743;-54
2023/11/14 04:45:47;;;;;;;7.20;3.40;;;;;;;4.98;60.65;99864.77;107072;1253;60540;-55
2023/11/14 04:48:15;;;;;;;10.30;4.10;;;;;;;4.93;60.70;99862.17;105962;1253;63627;-54
2023/11/14 04:50:43;;;;;;;8.20;3.70;;;;;;;4.87;60.73;99859.07;105408;1257;60519;-53
2023/11/14 04:53:10;;;;;;;8.50;2.90;;;;;;;4.81;60.65;99858.25;106884;1256;62481;-53
2023/11/14 04:55:38;;;;;;;11.40;3.20;;;;;;;4.74;60.76;99860.94;106735;1253;60326;-54
2023/11/14 04:58:08;;;;;;;9.70;5.30;;;;;;;4.67;60.84;99863.85;105423;1253;60533;-54
2023/11/14 05:00:35;;;;;;;9.00;3.80;;;;;;;4.60;60.92;99867.77;105724;1258;64947;-54
2023/11/14 05:03:05;;;;;;;8.70;4.00;;;;;;;4.53;61.08;99865.95;105468;1254;61889;-53
2023/11/14 05:05:34;;;;;;;9.70;3.10;;;;;;;4.49;61.28;99870.05;105654;1256;62599;-53
2023/11/14 05:08:01;;;;;;;7.30;2.00;;;;;;;4.54;61.38;99872.80;105542;1257;60523;-56
2023/11/14 05:10:30;;;;;;;8.10;3.30;;;;;;;4.63;61.19;99872.58;106628;1252;59289;-53
2023/11/14 05:12:59;;;;;;;7.10;2.10;;;;;;;4.72;61.22;99868.08;105791;1253;65352;-55
2023/11/14 05:15:27;;;;;;;7.10;3.00;;;;;;;4.83;61.25;99856.05;105145;1255;60278;-52
2023/11/14 05:17:56;;;;;;;7.20;3.00;;;;;;;4.94;61.22;99858.13;105422;1259;63723;-53
2023/11/14 05:20:24;;;;;;;6.90;2.40;;;;;;;5.01;61.04;99863.20;106386;1253;60558;-53
2023/11/14 05:22:52;;;;;;;7.70;3.70;;;;;;;5.05;60.94;99861.39;108434;1257;58449;-51
2023/11/14 05:25:20;;;;;;;8.70;3.30;;;;;;;5.07;60.97;99860.56;105907;1253;63734;-53
2023/11/14 05:27:49;;;;;;;8.30;4.00;;;;;;;5.08;60.97;99855.45;105510;1253;61442;-53
2023/11/14 05:30:17;;;;;;;13.80;4.30;;;;;;;5.08;60.88;99849.57;105985;1253;63786;-51
2023/11/14 05:32:48;;;;;;;10.90;2.70;;;;;;;5.08;60.89;99838.80;107574;1253;60495;-52
2023/11/14 05:35:16;;;;;;;11.10;4.00;;;;;;;5.06;60.91;99835.07;105661;1253;60534;-53
2023/11/14 05:37:44;;;;;;;7.00;3.00;;;;;;;5.04;60.96;99833.48;106896;1253;64929;-51
2023/11/14 05:40:15;;;;;;;10.10;4.10;;;;;;;5.02;61.08;99832.55;105227;1252;62349;-53
2023/11/14 05:42:42;;;;;;;7.70;3.40;;;;;;;5.03;61.16;99834.03;104869;1257;62501;-53
2023/11/14 05:45:10;;;;;;;9.70;3.60;;;;;;;5.06;61.28;99839.27;105387;1253;60534;-55
2023/11/14 05:47:38;;;;;;;11.20;3.90;;;;;;;5.09;61.42;99838.38;105373;1251;60552;-50
2023/11/14 05:50:06;;;;;;;10.00;3.10;;;;;;;5.13;61.56;99838.42;105248;1258;63712;-55
2023/11/14 05:52:34;;;;;;;7.70;3.20;;;;;;;5.17;61.68;99836.77;109254;1252;61364;-54
2023/11/14 05:55:01;;;;;;;8.80;3.00;;;;;;;5.22;61.67;99837.18;106955;1253;62531;-53
2023/11/14 05:57:29;;;;;;;9.70;3.20;;;;;;;5.25;61.72;99830.88;105318;1254;60549;-54
2023/11/14 05:59:57;;;;;;;8.10;2.60;;;;;;;5.34;61.73;99830.96;105106;1253;60466;-54
2023/11/14 06:02:26;;;;;;;7.80;2.10;;;;;;;5.46;61.70;99833.78;108261;1251;64932;-55
2023/11/14 06:04:53;;;;;;;6.60;2.70;;;;;;;5.61;61.76;99832.30;105298;1256;61539;-55
2023/11/14 06:07:22;;;;;;;6.20;2.10;;;;;;;5.76;61.67;99826.02;106690;1256;64353;-55
2023/11/14 06:09:50;;;;;;;7.60;2.60;;;;;;;5.91;61.48;99822.90;106037;1254;60441;-54
2023/11/14 06:12:18;;;;;;;7.20;3.50;;;;;;;6.05;61.22;99820.42;105444;1253;60331;-49
2023/11/14 06:14:46;;;;;;;7.10;2.90;;;;;;;6.14;61.12;99811.45;107390;1253;65016;-54
2023/11/14 06:17:14;;;;;;;7.60;3.10;;;;;;;6.22;61.08;99807.70;105614;1254;61399;-54
2023/11/14 06:19:42;;;;;;;8.20;3.40;;;;;;;6.30;60.87;99814.14;105490;1254;62580;-51
2023/11/14 06:22:09;;;;;;;7.50;2.80;;;;;;;6.34;60.69;99809.51;105321;1255;60326;-53
2023/11/14 06:24:37;;;;;;;8.60;3.90;;;;;;;6.36;60.53;99805.32;105256;1253;60643;-53
2023/11/14 06:27:04;;;;;;;10.40;2.90;;;;;;;6.39;60.47;99805.14;105242;1256;64189;-54
2023/11/14 06:29:33;;;;;;;8.20;3.40;;;;;;;6.43;60.48;99803.10;108179;1254;60485;-55
2023/11/14 06:32:02;;;;;;;10.60;2.80;;;;;;;6.48;60.31;99803.24;109169;1253;64019;-55
2023/11/14 06:34:30;;;;;;;8.00;2.90;;;;;;;6.51;60.02;99803.02;105818;1256;60458;-52
2023/11/14 06:36:57;;;;;;;7.30;2.20;;;;;;;6.52;59.88;99794.04;106502;1257;59270;-56
2023/11/14 06:39:26;;;;;;;12.20;8.10;;;;;;;6.56;59.87;99791.86;105839;1253;64919;-55
2023/11/14 06:41:54;;;;;;;9.20;3.50;;;;;;;6.61;59.94;99792.40;105536;1253;61448;-58
2023/11/14 06:44:21;;;;;;;6.50;2.50;;;;;;;6.71;59.78;99789.77;105284;1253;63699;-56
2023/11/14 06:46:49;;;;;;;6.40;2.90;;;;;;;6.84;59.50;99783.91;105600;1254;60560;-57
2023/11/14 06:49:17;;;;;;;10.10;6.70;;;;;;;6.96;59.30;99777.61;106637;1254;60416;-57
2023/11/14 06:51:44;;;;;;;11.10;3.30;;;;;;;7.08;59.04;99769.92;105335;1259;63723;-57
2023/11/14 06:54:12;;;;;;;7.20;3.30;;;;;;;7.18;58.94;99762.72;105317;1259;61826;-58
2023/11/14 06:56:39;;;;;;;11.20;6.60;;;;;;;7.26;58.83;99766.09;106910;1254;73158;-58
2023/11/14 06:59:07;;;;;;;5.50;2.40;;;;;;;7.34;58.58;99758.89;107160;1259;60565;-58
2023/11/14 07:01:35;;;;;;;10.50;2.80;;;;;;;7.39;58.41;99757.45;105547;1254;60381;-58
2023/11/14 07:04:02;;;;;;;11.10;6.90;;;;;;;7.42;58.20;99759.52;105306;1256;63642;-57
2023/11/14 07:06:30;;;;;;;7.60;2.40;;;;;;;7.43;58.03;99754.88;106513;1255;61338;-57
2023/11/14 07:08:58;;;;;;;6.90;3.40;;;;;;;7.46;57.92;99751.90;105996;1254;63679;-55
2023/11/14 07:11:26;;;;;;;5.20;2.10;;;;;;;7.48;57.83;99752.92;105771;1253;60536;-59
2023/11/14 07:13:54;;;;;;;10.00;6.40;;;;;;;7.48;57.47;99749.81;105645;1256;60607;-56
2023/11/14 07:16:22;;;;;;;7.90;3.30;;;;;;;7.47;57.42;99749.52;105700;1253;63688;-57
2023/11/14 07:18:50;;;;;;;5.00;2.50;;;;;;;7.47;57.32;99748.66;106141;1256;60690;-59
2023/11/14 07:24:10;;;;;;;7.60;2.90;;;;;;;7.21;57.54;99741.77;104969;1292;601167;-90
2023/11/14 07:26:41;;;;;;;7.70;3.40;;;;;;;7.44;56.63;99742.23;106655;1264;59234;-87
2023/11/14 07:29:13;;;;;;;9.20;4.90;;;;;;;7.47;56.24;99737.86;106905;1261;59216;-89
2023/11/14 07:31:47;;;;;;;7.00;2.60;;;;;;;7.49;55.88;99741.31;106382;1267;74142;-88
2023/11/14 07:34:16;;;;;;;6.10;3.00;;;;;;;7.56;55.64;99735.70;106129;1263;62951;-89
2023/11/14 07:36:45;;;;;;;7.90;2.60;;;;;;;7.66;55.44;99728.65;103791;1262;3326660;-89
2023/11/14 07:39:17;;;;;;;11.10;6.00;;;;;;;7.77;55.26;99724.88;106561;1262;59245;-88
2023/11/14 07:41:47;;;;;;;8.20;2.60;;;;;;;7.85;55.10;99721.08;106333;1267;59395;-89
2023/11/14 07:44:17;;;;;;;8.50;5.30;;;;;;;7.92;55.00;99712.19;106259;1264;62155;-88
2023/11/14 07:46:47;;;;;;;6.90;2.50;;;;;;;7.95;54.93;99707.34;106282;1260;70547;-89
2023/11/14 07:49:20;;;;;;;9.60;5.50;;;;;;;7.98;54.90;99700.98;106453;1263;64784;-89
2023/11/14 07:51:50;;;;;;;6.40;2.60;;;;;;;8.02;54.92;99695.66;106631;1261;59400;-90
2023/11/14 07:56:16;;;;;;;8.40;2.40;;;;;;;7.94;55.37;99682.80;104479;1295;600604;-88
2023/11/14 07:58:46;;;;;;;11.40;6.40;;;;;;;8.10;54.91;99677.55;106349;1269;59875;-89
2023/11/14 08:01:16;;;;;;;5.70;2.10;;;;;;;8.11;54.66;99671.11;106822;1266;59627;-88
2023/11/14 08:03:54;;;;;;;10.20;2.70;;;;;;;8.12;54.59;99663.02;106693;1267;65026;-90
2023/11/14 08:06:26;;;;;;;10.90;6.60;;;;;;;8.11;54.39;99658.06;106302;1268;62718;-89
2023/11/14 08:08:57;;;;;;;9.30;3.10;;;;;;;8.10;54.25;99645.92;103057;1266;3549007;-89
2023/11/14 08:11:31;;;;;;;11.40;6.70;;;;;;;8.09;54.10;99639.90;105980;1269;59420;-89
2023/11/14 08:14:01;;;;;;;6.90;3.50;;;;;;;8.08;53.97;99641.56;106105;1269;59309;-90
2023/11/14 08:16:32;;;;;;;7.40;3.50;;;;;;;8.07;53.89;99646.19;106452;1262;73905;-89
2023/11/14 08:19:03;;;;;;;11.40;7.00;;;;;;;8.05;53.58;99647.89;106591;1256;71113;-91
2023/11/14 08:21:34;;;;;;;8.30;3.10;;;;;;;8.06;53.78;99647.61;107100;1256;62749;-90
2023/11/14 08:24:07;;;;;;;13.10;6.80;;;;;;;8.08;53.81;99646.09;107706;1262;59739;-91
2023/11/14 08:26:38;;;;;;;11.90;2.90;;;;;;;8.09;53.67;99645.27;107549;1256;66999;-88
2023/11/14 08:29:34;;;;;;;9.40;3.70;;;;;;;8.12;53.26;99649.77;107826;1256;63265;-91
2023/11/14 08:32:05;;;;;;;10.80;6.60;;;;;;;8.13;52.97;99661.89;107317;1258;62335;-88
2023/11/14 08:34:38;;;;;;;7.80;3.70;;;;;;;8.16;52.73;99668.33;107097;1259;64762;-91
2023/11/14 08:37:08;;;;;;;10.50;6.80;;;;;;;8.18;52.76;99680.20;106307;1265;59548;-87
2023/11/14 08:39:37;;;;;;;8.30;3.40;;;;;;;8.19;52.73;99678.35;106430;1259;59543;-90
2023/11/14 08:42:11;;;;;;;7.00;2.80;;;;;;;8.19;52.54;99671.84;106465;1259;64203;-89
2023/11/14 08:44:42;;;;;;;11.50;7.50;;;;;;;8.19;52.60;99666.46;106376;1259;64089;-88
2023/11/14 08:47:11;;;;;;;14.70;6.80;;;;;;;8.23;52.50;99668.94;107743;1259;62641;-91
2023/11/14 08:49:51;;;;;;;7.20;3.10;;;;;;;8.26;52.58;99668.86;106534;1262;59440;-93
2023/11/14 08:52:22;;;;;;;8.10;2.70;;;;;;;8.29;52.71;99662.73;106977;1266;59598;-93
2023/11/14 08:54:53;;;;;;;11.30;6.50;;;;;;;8.31;52.50;99649.56;106522;1257;74483;-93
2023/11/14 08:57:24;;;;;;;9.10;3.50;;;;;;;8.35;52.42;99644.52;106898;1259;62958;-90
2023/11/14 08:59:57;;;;;;;11.80;6.60;;;;;;;8.39;52.33;99638.27;107121;1257;64349;-92
2023/11/14 09:02:29;;;;;;;11.30;6.30;;;;;;;8.44;52.33;99637.58;106676;1260;59664;-91
2023/11/14 09:04:58;;;;;;;8.70;3.80;;;;;;;8.48;52.44;99632.51;106670;1256;59717;-90
2023/11/14 09:07:31;;;;;;;11.60;7.00;;;;;;;8.55;52.43;99626.90;106848;1267;62736;-89
2023/11/14 09:10:04;;;;;;;5.80;2.00;;;;;;;8.63;52.51;99606.77;106699;1271;71210;-90
2023/11/14 09:12:35;;;;;;;7.20;3.00;;;;;;;8.70;52.52;99597.66;106560;1262;65788;-91
2023/11/14 09:15:13;;;;;;;11.00;6.40;;;;;;;8.77;52.38;99591.99;108269;1259;59684;-90
2023/11/14 09:17:45;;;;;;;16.40;6.50;;;;;;;8.82;52.42;99582.14;107386;1259;57852;-91
2023/11/14 09:20:46;;;;;;;4.70;1.60;;;;;;;8.86;52.53;99576.33;105160;1262;64196;-53
2023/11/14 09:23:14;;;;;;;12.20;7.10;;;;;;;8.87;52.38;99575.51;104711;1262;60287;-53
2023/11/14 09:25:46;;;;;;;7.40;3.10;;;;;;;8.87;52.16;99571.67;104745;1265;64879;-54
2023/11/14 09:28:14;;;;;;;13.10;7.40;;;;;;;8.84;51.86;99561.85;105081;1259;61912;-50
2023/11/14 09:30:42;;;;;;;9.70;6.70;;;;;;;8.80;52.02;99558.85;104686;1263;60040;-53
2023/11/14 09:33:10;;;;;;;6.30;2.70;;;;;;;8.79;52.21;99562.27;105121;1259;62968;-52
2023/11/14 09:35:37;;;;;;;15.10;6.90;;;;;;;8.77;52.13;99573.11;104643;1265;69226;-52
2023/11/14 09:38:05;;;;;;;9.70;4.40;;;;;;;8.77;52.09;99583.58;105448;1263;62561;-52
2023/11/14 09:40:35;;;;;;;15.30;6.70;;;;;;;8.76;52.13;99584.68;105808;1259;61491;-52
2023/11/14 09:43:04;;;;;;;6.70;2.70;;;;;;;8.78;52.16;99586.84;105462;1262;60973;-53
2023/11/14 09:45:32;;;;;;;10.50;6.30;;;;;;;8.79;52.13;99588.45;104848;1264;64176;-54
2023/11/14 09:48:06;;;;;;;6.80;2.80;;;;;;;8.80;52.00;99584.20;104691;1259;61476;-51
2023/11/14 09:50:35;;;;;;;9.40;5.80;;;;;;;8.84;51.82;99573.57;106206;1259;64228;-54
2023/11/14 09:53:04;;;;;;;8.20;2.90;;;;;;;8.84;51.70;99568.84;107038;1262;59712;-48
2023/11/14 09:55:33;;;;;;;21.40;7.00;;;;;;;8.84;51.75;99561.13;106188;1259;59536;-52
2023/11/14 09:58:02;;;;;;;5.20;1.70;;;;;;;8.85;51.81;99558.25;106373;1260;64185;-53
2023/11/14 10:00:30;;;;;;;12.30;6.10;;;;;;;8.87;51.62;99555.59;104991;1264;63632;-52
2023/11/14 10:02:58;;;;;;;12.90;6.20;;;;;;;8.88;51.64;99551.30;105533;1259;62537;-53
2023/11/14 10:05:26;;;;;;;6.20;2.30;;;;;;;8.88;51.57;99543.61;105362;1262;59755;-52
2023/11/14 10:07:54;;;;;;;11.40;5.70;;;;;;;8.87;51.54;99543.14;105288;1259;60340;-52
2023/11/14 10:10:22;;;;;;;11.30;5.80;;;;;;;8.87;51.54;99536.05;104770;1264;64451;-53
2023/11/14 10:12:50;;;;;;;14.80;3.10;;;;;;;8.87;51.56;99530.23;108717;1258;61500;-53
2023/11/14 10:15:30;;;;;;;15.50;5.70;;;;;;;8.88;51.45;99526.52;108731;1260;66104;-53
2023/11/14 10:18:02;;;;;;;6.10;2.90;;;;;;;8.87;51.63;99526.08;104823;1265;59763;-53
2023/11/14 10:20:38;;;;;;;8.30;5.00;;;;;;;8.87;51.90;99518.89;105443;1264;62493;-53
2023/11/14 10:23:09;;;;;;;10.50;4.80;;;;;;;8.88;51.92;99513.70;105399;1259;75244;-54
2023/11/14 10:25:51;;;;;;;9.40;2.40;;;;;;;8.87;52.00;99512.57;105525;1264;63681;-51
2023/11/14 10:28:20;;;;;;;9.90;4.80;;;;;;;8.83;52.27;99504.88;105080;1264;62489;-53
2023/11/14 10:30:49;;;;;;;10.20;5.00;;;;;;;8.79;52.84;99507.66;105463;1259;60270;-52
2023/11/14 10:33:18;;;;;;;6.80;2.20;;;;;;;8.72;53.79;99507.61;105150;1264;60007;-50
2023/11/14 10:35:48;;;;;;;5.00;1.90;;;;;;;8.67;54.61;99498.56;105014;1259;65114;-50
2023/11/14 10:38:25;;;;;;;8.00;4.90;;;;;;;8.68;55.58;99495.55;108717;1264;61582;-51
2023/11/14 10:40:54;;;;;;;5.00;1.60;;;;;;;8.69;56.05;99489.79;108762;1259;65954;-52
2023/11/14 10:43:32;;;;;;;8.30;4.30;;;;;;;8.70;56.50;99483.46;108750;1259;57779;-52
2023/11/14 10:46:01;;;;;;;11.00;5.10;;;;;;;8.67;56.89;99466.91;108727;1259;60181;-52
2023/11/14 10:48:29;;;;;;;4.70;1.50;;;;;;;8.67;57.25;99453.45;108690;1262;64213;-55
2023/11/14 10:50:57;;;;;;;8.70;5.00;;;;;;;8.70;57.53;99444.58;106470;1259;62036;-54
2023/11/14 10:53:25;;;;;;;9.10;5.60;;;;;;;8.72;57.76;99443.95;106302;1259;63749;-54
2023/11/14 10:55:54;;;;;;;6.00;2.50;;;;;;;8.70;58.09;99436.95;104844;1259;62931;-54
2023/11/14 10:58:23;;;;;;;9.30;4.90;;;;;;;8.72;58.37;99435.83;104851;1259;59882;-54
2023/11/14 11:00:51;;;;;;;9.60;4.90;;;;;;;8.78;58.55;99435.70;105537;1259;62858;-55
2023/11/14 11:03:19;;;;;;;7.40;2.70;;;;;;;8.78;58.53;99433.08;104975;1259;63800;-54
2023/11/14 11:05:47;;;;;;;8.20;5.50;;;;;;;8.74;58.74;99425.22;105345;1265;73856;-55
2023/11/14 11:08:15;;;;;;;6.60;2.20;;;;;;;8.73;58.95;99419.71;105011;1260;62362;-57
2023/11/14 11:10:43;;;;;;;9.20;5.40;;;;;;;8.71;59.01;99414.84;104782;1264;59611;-56
2023/11/14 11:13:16;;;;;;;9.90;5.00;;;;;;;8.66;59.13;99403.75;106108;1259;73279;-55
2023/11/14 11:15:47;;;;;;;5.40;2.30;;;;;;;8.60;59.26;99396.86;106402;1259;63701;-55
2023/11/14 11:18:15;;;;;;;9.60;5.60;;;;;;;8.56;59.51;99388.14;105305;1261;62546;-55
2023/11/14 11:20:43;;;;;;;5.20;1.80;;;;;;;8.54;59.86;99378.91;105026;1262;59771;-53
2023/11/14 11:23:12;;;;;;;7.50;4.30;;;;;;;8.59;60.05;99367.60;104820;1265;62402;-51
2023/11/14 11:25:45;;;;;;;4.50;1.60;;;;;;;8.65;60.34;99361.69;105074;1260;63137;-54
2023/11/14 11:28:27;;;;;;;7.60;4.30;;;;;;;8.73;60.37;99357.80;105383;1267;64409;-55
2023/11/14 11:31:13;;;;;;;8.10;5.00;;;;;;;8.80;60.58;99352.67;104668;1267;73692;-52
2023/11/14 11:33:44;;;;;;;5.30;2.00;;;;;;;8.83;60.57;99345.97;108676;1262;62297;-54
2023/11/14 11:36:24;;;;;;;7.20;4.50;;;;;;;8.83;60.51;99336.69;108653;1264;62215;-54
2023/11/14 11:39:05;;;;;;;5.60;2.50;;;;;;;8.83;60.51;99331.45;108648;1262;65254;-54
2023/11/14 11:41:34;;;;;;;8.20;5.00;;;;;;;8.82;60.49;99327.67;108636;1261;63640;-54
2023/11/14 11:44:06;;;;;;;10.10;4.90;;;;;;;8.80;60.53;99321.73;105379;1262;74931;-54